ADDS METAR Data INFO
IDs: Format: Raw Decoded Include TAF

Data at: 1159 UTC 23 Jun 2018

KAKQ 231154Z AUTO 21005KT 3SM -RA BR CLR 25/23 A2982 RMK AO2 RAB51 SLP098 P0000 60000 70165 T02500233 10250 20217 51008
KAKQ 231054Z AUTO 19003KT 4SM BR CLR 23/22 A2982 RMK AO2 SLP096 T02330222
KAKQ 230954Z AUTO VRB03KT 4SM BR CLR 23/21 A2981 RMK AO2 SLP093 T02280211
KAKQ 230854Z AUTO 00000KT 6SM BR CLR 22/21 A2980 RMK AO2 SLP089 T02220211 55009
KAKQ 230754Z AUTO VRB03KT 6SM BR CLR 22/21 A2980 RMK AO2 SLP088 T02220211
KAKQ 230654Z AUTO 17003KT 9SM CLR 22/21 A2981 RMK AO2 SLP093 T02170206
KAKQ 230554Z AUTO VRB03KT 7SM FEW003 22/21 A2983 RMK AO2 LTG DSNT SE AND S SLP098 60117 T02170206 10233 20206 56005
KAKQ 230541Z AUTO 00000KT 7SM VCTS SCT003 22/21 A2983 RMK AO2 LTG DSNT E-SW T02170206
KAKQ 230522Z AUTO 11004KT 7SM FEW003 22/21 A2982 RMK AO2 LTG DSNT NE AND E AND SW T02170206
KAKQ 230454Z AUTO 00000KT 5SM VCTS BR CLR 21/20 A2983 RMK AO2 LTG DSNT NE AND E AND SW TSE44 SLP100 T02110200 403170206
KAKQ 230450Z AUTO 00000KT 5SM VCTS BR CLR 21/20 A2983 RMK AO2 LTG DSNT NE AND E TSE44
KAKQ 230354Z AUTO 28003KT 9SM TS FEW050 SCT070 BKN085 21/20 A2984 RMK AO2 LTG DSNT SW-N RAE25 TSB43 SLP103 P0037 T02110200
KAKQ 230349Z AUTO 21003KT 9SM TS FEW050 SCT070 SCT090 21/21 A2985 RMK AO2 LTG DSNT SW-N RAE25 TSB43 P0037
KAKQ 230327Z AUTO 03004KT 10SM VCTS FEW023 SCT100 21/20 A2981 RMK AO2 LTG DSNT SW-NW RAE25 P0037 T02110200
KAKQ 230312Z AUTO VRB04KT 3SM VCTS RA BR BKN017 OVC100 21/19 A2981 RMK AO2 LTG DSNT ALQDS PRESFR P0036 T02060194
KAKQ 230306Z AUTO VRB03KT 1SM VCTS -RA BR BKN017 OVC100 21/20 A2983 RMK AO2 LTG DSNT ALQDS P0035 T02110200
KAKQ 230303Z AUTO VRB04KT 1/2SM -RA FG FEW006 OVC017 21/20 A2983 RMK AO2 LTG DSNT ALQDS PRESFR P0035 T02110200
KAKQ 230254Z AUTO VRB03KT 1/4SM +RA FG FEW006 BKN013 OVC033 21/20 A2985 RMK AO2 PK WND 27027/0239 LTG DSNT W-NE RAB19 SLP106 P0080 60080 T02110200 50016
KAKQ 230251Z AUTO VRB04KT 1/4SM +RA FG FEW006 BKN013 OVC033 21/20 A2986 RMK AO2 PK WND 27027/0239 LTG DSNT W-NE RAB19 P0065
KAKQ 230242Z AUTO 28014G27KT 1/4SM +RA FG BKN009 BKN033 OVC065 22/21 A2986 RMK AO2 PK WND 27027/0239 LTG DSNT W-NE RAB19 P0015 T02220211
KAKQ 230239Z AUTO 26018G27KT 1/2SM +RA FG SCT006 BKN020 OVC080 23/22 A2986 RMK AO2 PK WND 27027/0239 LTG DSNT W-NE RAB19 PRESRR P0008 T02330222
KAKQ 230231Z AUTO 27008KT 1 1/2SM RA BR FEW006 SCT034 BKN055 23/22 A2984 RMK AO2 LTG DSNT N AND W RAB19 PRESRR P0001 T02330222
KAKQ 230154Z AUTO 00000KT 8SM FEW050 23/22 A2981 RMK AO2 LTG DSNT NE TSE21 SLP091 T02330222
KAKQ 230145Z AUTO 07003KT 9SM CLR 23/22 A2979 RMK AO2 LTG DSNT NE AND E TSE21 T02330222
KAKQ 230127Z AUTO 06005KT 10SM VCTS FEW045 FEW055 23/22 A2979 RMK AO2 LTG DSNT N AND NE TSE21 T02280217
KAKQ 230054Z AUTO VRB04KT 9SM TS SCT110 23/22 A2980 RMK AO2 LTG DSNT W-NE RAE05 TSB38 SLP090 P0000 T02330217
KAKQ 230044Z AUTO 04005KT 8SM TS FEW110 23/22 A2980 RMK AO2 LTG DSNT W-N RAE05 TSB38 P0000 T02330217
KAKQ 230013Z AUTO 33004KT 8SM VCTS FEW030 BKN075 BKN100 23/22 A2981 RMK AO2 LTG DSNT W-NE RAE05 P0000 T02330217
KAKQ 230000Z AUTO 34004KT 3SM -RA BR FEW021 SCT070 BKN085 23/21 A2981 RMK AO2 LTG DSNT W-N P0000 T02330211
KAKQ 222354Z AUTO VRB05KT 1SM RA BR FEW023 BKN070 OVC100 23/22 A2980 RMK AO2 LTG DSNT W-N RAE01B40 SLP092 P0017 60048 T02330217 10317 20233 53013
KAKQ 222342Z AUTO 26009KT 1/4SM +RA FG SCT018 SCT070 BKN080 24/22 A2982 RMK AO2 LTG DSNT W-N RAE01B40 P0000 T02390217
KAKQ 222259Z AUTO VRB04KT 5SM -RA BR FEW011 SCT025 BKN049 25/23 A2977 RMK AO2 P0000 T02500233
KAKQ 222255Z AUTO 23004KT 2SM -RA BR FEW009 BKN027 BKN049 26/23 A2978 RMK AO2 P0000 T02560233
KAKQ 222251Z AUTO 00000KT 1/2SM -RA FG SCT011 BKN025 BKN049 25/24 A2977 RMK AO2 RAB25 SLP080 P0031 T02500239
KAKQ 222250Z AUTO VRB03KT 1/2SM -RA FG SCT011 BKN025 BKN047 25/23 A2977 RMK AO2 RAB25 P0031
KAKQ 222236Z AUTO VRB04KT 1/4SM +RA FG FEW011 SCT040 BKN050 27/25 A2978 RMK AO2 RAB25 PRESRR P0005 T02720250
KAKQ 222228Z AUTO 12004KT 1 1/2SM -RA FEW040 SCT048 SCT070 28/24 A2977 RMK AO2 RAB25 P0000 T02780244
KAKQ 222154Z AUTO 05005KT 6SM HZ FEW030 BKN038 BKN048 29/25 A2976 RMK AO2 SLP077 T02890250
KAKQ 222054Z AUTO VRB04KT 10SM FEW065 31/23 A2977 RMK AO2 SLP078 T03110233 58013
KAKQ 221954Z AUTO 00000KT 10SM SCT040 BKN060 31/23 A2978 RMK AO2 LTG DSNT E SLP083 T03110233
KAKQ 221854Z AUTO VRB06KT 10SM FEW060 FEW080 31/23 A2980 RMK AO2 SLP089 T03060233
KAKQ 221754Z AUTO 21005KT 10SM SCT031 SCT050 BKN070 31/23 A2981 RMK AO2 SLP091 T03060233 10306 20239 58007
KAKQ 221654Z AUTO VRB04KT 9SM FEW025 FEW075 30/23 A2982 RMK AO2 SLP097 T03000228
KAKQ 221610Z AUTO 18004KT 7SM FEW020 SCT025 SCT036 28/23 A2983 RMK AO2 T02780233
KAKQ 221554Z AUTO 21006KT 7SM BKN019 BKN025 BKN036 28/23 A2983 RMK AO2 SLP099 T02830233
KAKQ 221533Z AUTO 00000KT 7SM BKN018 BKN029 BKN038 28/24 A2983 RMK AO2 T02830239
KAKQ 221524Z AUTO VRB05KT 7SM SCT018 SCT024 BKN038 28/23 A2983 RMK AO2 T02780233
KAKQ 221454Z AUTO VRB04KT 7SM SCT014 BKN021 BKN040 27/23 A2983 RMK AO2 SLP099 T02720233 57002
KAKQ 221421Z AUTO VRB03KT 8SM FEW025 SCT040 27/23 A2983 RMK AO2 T02670233
KAKQ 221354Z AUTO 00000KT 7SM FEW009 BKN018 OVC024 26/23 A2983 RMK AO2 SLP099 T02610233
KAKQ 221350Z AUTO VRB03KT 7SM SCT011 BKN018 OVC024 26/23 A2983 RMK AO2
KAKQ 221336Z AUTO 20003KT 7SM SCT009 BKN012 OVC020 26/24 A2983 RMK AO2 T02560239
KAKQ 221312Z AUTO 12004KT 6SM BR SCT007 OVC019 24/23 A2983 RMK AO2 T02440233
KAKQ 221254Z AUTO 13003KT 5SM BR BKN006 OVC021 24/23 A2983 RMK AO2 CIG 005V009 SLP101 T02440233
KAKQ 221218Z AUTO VRB04KT 4SM BR OVC005 24/23 A2982 RMK AO2 CIG 004V008 T02390228
KAKQ 221154Z AUTO 00000KT 4SM BR OVC004 24/23 A2982 RMK AO2 SLP096 60039 70102 T02390228 10244 20233 53022
KAKQ 221119Z AUTO VRB03KT 4SM BR OVC004 24/23 A2981 RMK AO2 T02390228
KAKQ 221054Z AUTO 12004KT 5SM BR OVC005 23/23 A2980 RMK AO2 SLP088 T02330228
KAKQ 220954Z AUTO 11004KT 5SM BR OVC005 23/23 A2978 RMK AO2 RAE27 TSE09 SLP081 P0001 T02330228
KAKQ 220915Z AUTO VRB04KT 6SM -RA BR BKN005 OVC095 23/23 A2977 RMK AO2 LTG DSNT SE TSE09 P0001 T02330228
KAKQ 220901Z AUTO VRB04KT 3SM -TSRA BR BKN005 BKN055 OVC095 23/23 A2976 RMK AO2 P0001 T02330228
KAKQ 220854Z AUTO 10006KT 2SM TSRA BR SCT005 BKN060 OVC095 23/23 A2975 RMK AO2 TSB54 SLP074 P0008 60038 T02330228 58010
KAKQ 220848Z AUTO 10006KT 2 1/2SM VCTS RA BR SCT005 BKN013 OVC095 23/23 A2975 RMK AO2 P0006
KAKQ 220835Z AUTO 09005KT 3SM VCTS -RA BR BKN005 BKN046 OVC100 23/23 A2976 RMK AO2 P0006 T02330228
KAKQ 220823Z AUTO 11005KT 3SM VCTS -RA BR SCT005 BKN070 OVC110 24/23 A2977 RMK AO2 P0005 T02390228
KAKQ 220814Z AUTO 11005KT 2SM -RA BR FEW008 BKN070 OVC100 24/23 A2978 RMK AO2 LTG DSNT SW AND W P0005 T02390228
KAKQ 220754Z AUTO 11004KT 1 1/4SM RA BR BKN060 BKN080 OVC100 24/23 A2978 RMK AO2 LTG DSNT SW AND W SLP081 P0029 T02390228
KAKQ 220737Z AUTO 00000KT 1 1/4SM RA BR BKN047 BKN070 OVC100 24/23 A2979 RMK AO2 LTG DSNT W P0025 T02390228
KAKQ 220723Z AUTO 14003KT 1/2SM +RA FG BKN044 BKN070 OVC090 24/23 A2979 RMK AO2 LTG DSNT W P0018 T02390228
KAKQ 220704Z AUTO 00000KT 1 3/4SM RA BR SCT070 BKN090 OVC120 24/23 A2979 RMK AO2 P0001 T02440233
KAKQ 220654Z AUTO 00000KT 3SM -RA BR BKN090 OVC120 24/23 A2978 RMK AO2 SLP082 P0001 T02440228
KAKQ 220610Z AUTO 00000KT 3SM -RA BR FEW060 OVC100 24/23 A2978 RMK AO2 LTG DSNT W P0000 T02440233
KAKQ 220554Z AUTO 09003KT 2SM -RA BR FEW055 BKN100 OVC120 24/23 A2978 RMK AO2 SLP084 P0006 60063 T02440233 10272 20239 56009
KAKQ 220542Z AUTO 10004KT 1 3/4SM RA BR FEW075 OVC100 24/23 A2979 RMK AO2 P0004 T02440233
KAKQ 220454Z AUTO VRB03KT 2 1/2SM -RA BR BKN100 24/23 A2980 RMK AO2 RAB48 SLP089 P0000 T02440233 403280222
KAKQ 220438Z AUTO 00000KT 3SM BR FEW100 24/23 A2980 RMK AO2 T02440233
KAKQ 220354Z AUTO 00000KT 2 1/2SM BR CLR 24/23 A2979 RMK AO2 SLP087 T02390228
KAKQ 220342Z AUTO 00000KT 2SM BR CLR 24/23 A2979 RMK AO2 T02390228
KAKQ 220254Z AUTO 00000KT 5SM BR FEW011 FEW120 24/23 A2981 RMK AO2 LTG DSNT SE RAE40 SLP093 P0012 60057 T02440233 50017
KAKQ 220227Z AUTO 00000KT 3SM -RA BR SCT028 SCT043 OVC075 24/23 A2981 RMK AO2 LTG DSNT SE AND S P0012 T02390228
KAKQ 220200Z AUTO VRB03KT 1SM RA BR SCT007 BKN032 OVC050 24/23 A2982 RMK AO2 LTG DSNT S-NW P0006 T02390228
KAKQ 220154Z AUTO 12004KT 3/4SM +RA BR SCT009 OVC027 24/23 A2982 RMK AO2 LTG DSNT S-NW SLP095 P0039 T02390228
KAKQ 220152Z AUTO VRB05KT 3/4SM +RA BR SCT009 BKN027 OVC038 24/23 A2981 RMK AO2 LTG DSNT S-NW P0036
KAKQ 220140Z AUTO VRB06KT 1/2SM +RA FG BKN007 BKN011 OVC024 24/23 A2980 RMK AO2 LTG DSNT S-NW CIG 005V009 P0020 T02440228
KAKQ 220132Z AUTO 00000KT 3/4SM +RA BR SCT007 BKN011 OVC024 26/24 A2980 RMK AO2 LTG DSNT S-NW P0009 T02560239
KAKQ 220129Z AUTO 00000KT 1 1/2SM RA BR SCT009 BKN019 OVC024 26/24 A2980 RMK AO2 LTG DSNT S-NW P0008 T02560239
KAKQ 220125Z AUTO 00000KT 2 1/2SM -RA BR SCT011 SCT019 OVC024 26/24 A2979 RMK AO2 LTG DSNT S-NW P0008 T02560239
KAKQ 220109Z AUTO VRB03KT 1 1/2SM RA BR OVC022 26/24 A2980 RMK AO2 LTG DSNT S-NW P0004 T02560244
KAKQ 220054Z AUTO 00000KT 2SM RA BR BKN020 OVC060 26/24 A2978 RMK AO2 LTG DSNT S-W SLP083 P0006 T02560244
KAKQ 220047Z AUTO 00000KT 1 1/4SM RA BR BKN022 BKN028 OVC110 26/24 A2977 RMK AO2 LTG DSNT SW AND W P0005 T02610244
KAKQ 220038Z AUTO 00000KT 2 1/2SM -RA BR SCT022 BKN029 BKN060 26/24 A2978 RMK AO2 LTG DSNT SW AND W P0002 T02610244